createdAt,value
2022-12-28T00:02:12.236Z,5.10
2022-12-28T00:04:38.922Z,5.10
2022-12-28T00:07:05.610Z,5.00
2022-12-28T00:09:32.200Z,5.00
2022-12-28T00:11:58.823Z,5.00
2022-12-28T00:14:25.431Z,5.00
2022-12-28T00:16:52.128Z,5.00
2022-12-28T00:19:18.797Z,5.00
2022-12-28T00:21:46.556Z,5.00
2022-12-28T00:24:21.334Z,5.10
2022-12-28T00:26:48.416Z,5.10
2022-12-28T00:29:15.581Z,5.10
2022-12-28T00:31:45.517Z,5.10
2022-12-28T00:34:12.301Z,5.10
2022-12-28T00:37:10.638Z,5.00
2022-12-28T00:39:27.358Z,5.10
2022-12-28T00:41:53.968Z,5.00
2022-12-28T00:44:21.028Z,5.00
2022-12-28T00:46:48.810Z,5.00
2022-12-28T00:49:15.446Z,5.00
2022-12-28T00:51:42.071Z,5.00
2022-12-28T00:54:08.918Z,5.10
2022-12-28T00:56:35.680Z,5.10
2022-12-28T00:59:02.372Z,5.10
2022-12-28T01:01:29.769Z,5.30
2022-12-28T01:03:58.920Z,5.20
2022-12-28T01:06:26.532Z,5.20
2022-12-28T01:08:53.378Z,5.20
2022-12-28T01:11:23.139Z,5.20
2022-12-28T01:13:51.560Z,5.30
2022-12-28T01:16:21.812Z,5.30
2022-12-28T01:18:52.537Z,5.30
2022-12-28T01:21:23.257Z,5.30
2022-12-28T01:23:53.130Z,5.40
2022-12-28T01:26:20.159Z,5.40
2022-12-28T01:28:46.896Z,5.50
2022-12-28T01:31:16.586Z,5.50
2022-12-28T01:33:44.206Z,5.50
2022-12-28T01:36:19.701Z,5.50
2022-12-28T01:38:47.527Z,5.50
2022-12-28T01:41:16.782Z,5.60
2022-12-28T01:43:47.109Z,5.60
2022-12-28T01:46:20.193Z,5.60
2022-12-28T01:49:06.365Z,5.60
2022-12-28T01:51:56.344Z,5.60
2022-12-28T01:54:25.975Z,5.70
2022-12-28T01:56:53.148Z,5.70
2022-12-28T01:59:22.502Z,5.80
2022-12-28T02:01:51.664Z,5.70
2022-12-28T02:04:18.418Z,5.80
2022-12-28T02:06:46.001Z,5.70
2022-12-28T02:09:28.113Z,5.80
2022-12-28T02:11:55.239Z,5.80
2022-12-28T02:14:22.786Z,5.90
2022-12-28T02:16:52.099Z,5.90
2022-12-28T02:19:28.812Z,6.00
2022-12-28T02:22:11.404Z,6.00
2022-12-28T02:24:49.952Z,6.10
2022-12-28T02:28:13.998Z,6.10
2022-12-28T02:30:47.040Z,6.10
2022-12-28T02:33:24.933Z,6.10
2022-12-28T02:35:57.015Z,6.20
2022-12-28T02:38:53.216Z,6.20
2022-12-28T02:41:24.242Z,6.20
2022-12-28T02:43:51.961Z,6.30
2022-12-28T02:46:46.672Z,6.30
2022-12-28T02:49:38.037Z,6.30
2022-12-28T02:52:47.414Z,6.30
2022-12-28T02:55:37.183Z,6.40
2022-12-28T02:58:10.838Z,6.50
2022-12-28T03:01:09.178Z,6.50
2022-12-28T03:03:43.958Z,6.50
2022-12-28T03:06:58.778Z,6.50
2022-12-28T03:09:33.892Z,6.50
2022-12-28T03:12:08.637Z,6.60
2022-12-28T03:14:43.616Z,6.60
2022-12-28T03:17:30.420Z,6.60
2022-12-28T03:20:20.828Z,6.60
2022-12-28T03:23:07.211Z,6.70
2022-12-28T03:25:58.433Z,6.70
2022-12-28T03:28:51.596Z,6.70
2022-12-28T03:31:23.452Z,6.80
2022-12-28T03:34:06.560Z,6.80
2022-12-28T03:36:48.817Z,6.80
2022-12-28T03:39:33.910Z,6.80
2022-12-28T03:42:45.659Z,6.80
2022-12-28T03:45:46.312Z,6.80
2022-12-28T03:48:16.491Z,6.90
2022-12-28T03:50:46.335Z,6.90
2022-12-28T03:53:17.973Z,6.90
2022-12-28T03:55:44.621Z,6.90
2022-12-28T03:58:12.196Z,7.00
2022-12-28T04:00:38.927Z,7.00
2022-12-28T04:03:07.122Z,7.00
2022-12-28T04:05:34.976Z,7.00
2022-12-28T04:08:01.627Z,7.00
2022-12-28T04:10:28.410Z,7.00
2022-12-28T04:12:56.667Z,7.00
2022-12-28T04:15:43.624Z,7.10
2022-12-28T04:18:10.440Z,7.10
2022-12-28T04:20:38.407Z,7.10
2022-12-28T04:23:05.074Z,7.10
2022-12-28T04:25:32.353Z,7.20
2022-12-28T04:27:59.599Z,7.10
2022-12-28T04:30:45.263Z,7.10
2022-12-28T04:33:11.980Z,7.10
2022-12-28T04:35:39.342Z,7.20
2022-12-28T04:38:07.038Z,7.30
2022-12-28T04:40:33.640Z,7.30
2022-12-28T04:43:00.423Z,7.30
2022-12-28T04:45:27.030Z,7.30
2022-12-28T04:47:57.565Z,7.30
2022-12-28T04:50:25.035Z,7.30
2022-12-28T04:52:51.713Z,7.40
2022-12-28T04:55:32.396Z,7.30
2022-12-28T04:58:00.390Z,7.30
2022-12-28T05:00:27.114Z,7.30
2022-12-28T05:02:53.838Z,7.30
2022-12-28T05:05:20.517Z,7.30
2022-12-28T05:07:47.144Z,7.40
2022-12-28T05:10:13.765Z,7.40
2022-12-28T05:12:40.356Z,7.30
2022-12-28T05:15:07.944Z,7.30
2022-12-28T05:17:34.557Z,7.30
2022-12-28T05:20:01.156Z,7.30
2022-12-28T05:22:27.877Z,7.40
2022-12-28T05:24:54.491Z,7.40
2022-12-28T05:27:21.160Z,7.40
2022-12-28T05:29:47.773Z,7.40
2022-12-28T05:32:14.452Z,7.40
2022-12-28T05:34:42.215Z,7.40
2022-12-28T05:37:08.847Z,7.40
2022-12-28T05:39:35.491Z,7.40
2022-12-28T05:42:02.655Z,7.50
2022-12-28T05:44:30.446Z,7.50
2022-12-28T05:46:57.151Z,7.50
2022-12-28T05:49:23.827Z,7.60
2022-12-28T05:51:53.662Z,7.60
2022-12-28T05:54:20.498Z,7.60
2022-12-28T05:56:51.689Z,7.60
2022-12-28T05:59:18.442Z,7.60
2022-12-28T06:01:45.758Z,7.60
2022-12-28T06:04:18.222Z,7.70
2022-12-28T06:06:46.372Z,7.70
2022-12-28T06:09:14.055Z,7.70
2022-12-28T06:11:40.827Z,7.70
2022-12-28T06:14:07.854Z,7.70
2022-12-28T06:16:40.366Z,7.80
2022-12-28T06:19:09.049Z,7.80
2022-12-28T06:21:37.792Z,7.90
2022-12-28T06:24:05.504Z,7.90
2022-12-28T06:26:33.972Z,8.00
2022-12-28T06:29:03.796Z,8.00
2022-12-28T06:31:33.152Z,8.10
2022-12-28T06:34:01.525Z,8.10
2022-12-28T06:36:31.390Z,8.10
2022-12-28T06:39:00.111Z,8.20
2022-12-28T06:41:28.290Z,8.20
2022-12-28T06:43:55.858Z,8.20
2022-12-28T06:46:25.012Z,8.30
2022-12-28T06:48:51.852Z,8.30
2022-12-28T06:51:23.965Z,8.40
2022-12-28T06:53:52.726Z,8.40
2022-12-28T06:56:21.929Z,8.50
2022-12-28T06:58:50.097Z,8.50
2022-12-28T07:01:25.679Z,8.50
2022-12-28T07:03:54.644Z,8.50
2022-12-28T07:06:23.194Z,8.60
2022-12-28T07:08:50.244Z,8.60
2022-12-28T07:11:21.742Z,8.60
2022-12-28T07:13:49.382Z,8.60
2022-12-28T07:16:18.844Z,8.70
2022-12-28T07:18:45.956Z,8.80
2022-12-28T07:21:17.708Z,8.80
2022-12-28T07:23:44.785Z,8.70
2022-12-28T07:26:13.946Z,8.70
2022-12-28T07:28:45.414Z,8.70
2022-12-28T07:31:16.515Z,8.80
2022-12-28T07:33:44.044Z,8.80
2022-12-28T07:36:13.725Z,8.70
2022-12-28T07:38:40.944Z,8.80
2022-12-28T07:41:12.621Z,8.80
2022-12-28T07:43:39.843Z,8.80
2022-12-28T07:46:13.131Z,8.80
2022-12-28T07:48:40.728Z,8.70
2022-12-28T07:51:09.156Z,8.80
2022-12-28T07:53:36.744Z,8.80
2022-12-28T07:56:04.056Z,8.80
2022-12-28T07:58:31.087Z,8.90
2022-12-28T08:01:25.021Z,8.90
2022-12-28T08:04:01.171Z,8.90
2022-12-28T08:06:29.192Z,8.90
2022-12-28T08:08:59.595Z,8.90
2022-12-28T08:11:29.288Z,9.00
2022-12-28T08:13:57.171Z,9.00
2022-12-28T08:16:26.694Z,9.00
2022-12-28T08:18:53.835Z,9.00
2022-12-28T08:21:30.619Z,9.00
2022-12-28T08:23:58.103Z,9.10
2022-12-28T08:26:27.722Z,9.10
2022-12-28T08:28:56.922Z,9.00
2022-12-28T08:31:26.292Z,9.00
2022-12-28T08:33:54.521Z,9.00
2022-12-28T08:36:21.290Z,9.00
2022-12-28T08:38:48.613Z,9.00
2022-12-28T08:41:18.774Z,9.10
2022-12-28T08:43:46.294Z,9.00
2022-12-28T08:46:18.982Z,9.10
2022-12-28T08:48:47.325Z,9.20
2022-12-28T08:51:16.610Z,9.30
2022-12-28T08:53:43.752Z,9.30
2022-12-28T08:56:17.048Z,9.30
2022-12-28T08:58:45.751Z,9.30
2022-12-28T09:01:28.059Z,9.30
2022-12-28T09:03:56.895Z,9.30
2022-12-28T09:06:26.511Z,9.30
2022-12-28T09:09:10.810Z,9.40
2022-12-28T09:11:39.158Z,9.50
2022-12-28T09:14:09.205Z,9.40
2022-12-28T09:16:37.404Z,9.40
2022-12-28T09:19:06.850Z,9.30
2022-12-28T09:21:36.385Z,9.20
2022-12-28T09:24:03.945Z,9.30
2022-12-28T09:26:33.846Z,9.20
2022-12-28T09:29:03.054Z,9.20
2022-12-28T09:31:32.473Z,9.10
2022-12-28T09:36:47.123Z,9.10
2022-12-28T09:39:17.295Z,9.10
2022-12-28T09:41:55.727Z,9.10
2022-12-28T09:44:38.799Z,9.10
2022-12-28T09:47:08.207Z,9.20
2022-12-28T09:50:06.103Z,9.20
2022-12-28T09:52:39.911Z,9.10
2022-12-28T09:55:18.010Z,9.10
2022-12-28T09:57:57.125Z,9.20
2022-12-28T10:00:43.366Z,9.20
2022-12-28T10:03:31.950Z,9.20
2022-12-28T10:05:59.520Z,9.30
2022-12-28T10:08:28.554Z,9.20
2022-12-28T10:11:00.273Z,9.20
2022-12-28T10:16:25.158Z,9.30
2022-12-28T10:18:52.278Z,9.30
2022-12-28T10:21:25.395Z,9.40
2022-12-28T10:24:29.716Z,9.30
2022-12-28T10:26:46.816Z,9.40
2022-12-28T10:29:19.295Z,9.50
2022-12-28T10:32:01.254Z,9.50
2022-12-28T10:34:35.851Z,9.50
2022-12-28T10:37:16.978Z,9.50
2022-12-28T10:40:03.619Z,9.50
2022-12-28T10:42:40.568Z,9.50
2022-12-28T10:45:19.856Z,9.60
2022-12-28T10:47:49.941Z,9.50
2022-12-28T10:50:45.771Z,9.50
2022-12-28T10:53:40.325Z,9.60
2022-12-28T10:56:20.743Z,9.60
2022-12-28T10:58:49.562Z,9.60
2022-12-28T11:01:20.011Z,9.60
2022-12-28T11:03:55.794Z,9.60
2022-12-28T11:06:27.508Z,9.60
2022-12-28T11:09:35.079Z,9.70
2022-12-28T11:12:26.562Z,9.60
2022-12-28T11:14:54.222Z,9.70
2022-12-28T11:17:26.288Z,9.80
2022-12-28T11:19:57.272Z,9.70
2022-12-28T11:22:27.910Z,9.70
2022-12-28T11:24:55.477Z,9.70
2022-12-28T11:27:23.397Z,9.70
2022-12-28T11:29:52.883Z,10.20
2022-12-28T11:32:32.392Z,10.10
2022-12-28T11:34:59.909Z,10.10
2022-12-28T11:37:26.514Z,10.00
2022-12-28T11:39:53.661Z,9.90
2022-12-28T11:42:40.804Z,9.80
2022-12-28T11:45:16.710Z,9.80
2022-12-28T11:47:43.642Z,9.80
2022-12-28T11:50:41.649Z,9.90
2022-12-28T11:53:42.056Z,9.90
2022-12-28T11:56:10.863Z,9.90
2022-12-28T11:58:40.479Z,10.00
2022-12-28T12:01:30.222Z,9.90
2022-12-28T12:03:57.115Z,9.90
2022-12-28T12:06:48.591Z,10.00
2022-12-28T12:09:21.048Z,10.00
2022-12-28T12:11:59.352Z,10.00
2022-12-28T12:14:43.383Z,10.00
2022-12-28T12:17:14.440Z,10.00
2022-12-28T12:19:50.902Z,10.10
2022-12-28T12:22:24.253Z,10.00
2022-12-28T12:25:01.971Z,9.90
2022-12-28T12:27:38.832Z,9.80
2022-12-28T12:30:20.074Z,9.80
2022-12-28T12:32:53.390Z,9.80
2022-12-28T12:35:29.014Z,9.70
2022-12-28T12:38:10.112Z,9.70
2022-12-28T12:41:07.778Z,9.70
2022-12-28T12:43:56.213Z,9.70
2022-12-28T12:47:05.399Z,9.70
2022-12-28T12:49:52.964Z,9.60
2022-12-28T12:52:42.400Z,9.70
2022-12-28T12:55:38.388Z,9.70
2022-12-28T12:58:38.838Z,9.70
2022-12-28T13:01:28.828Z,9.60
2022-12-28T13:04:08.113Z,9.70
2022-12-28T13:06:39.254Z,9.50
2022-12-28T13:09:08.435Z,9.50
2022-12-28T13:11:38.405Z,9.50
2022-12-28T13:14:06.323Z,9.50
2022-12-28T13:16:33.179Z,9.70
2022-12-28T13:19:06.841Z,9.90
2022-12-28T13:21:50.977Z,9.90
2022-12-28T13:24:22.433Z,9.80
2022-12-28T13:26:49.487Z,10.60
2022-12-28T13:29:20.074Z,10.30
2022-12-28T13:31:49.806Z,10.10
2022-12-28T13:34:21.357Z,9.90
2022-12-28T13:36:59.188Z,9.60
2022-12-28T13:39:31.586Z,9.40
2022-12-28T13:42:26.021Z,9.30
2022-12-28T13:45:02.549Z,9.20
2022-12-28T13:47:40.338Z,9.20
2022-12-28T13:50:18.296Z,9.10
2022-12-28T13:52:51.585Z,9.10
2022-12-28T13:55:36.318Z,9.00
2022-12-28T13:58:07.593Z,9.00
2022-12-28T14:00:36.938Z,9.00
2022-12-28T14:03:09.232Z,9.00
2022-12-28T14:05:36.127Z,9.00
2022-12-28T14:08:06.043Z,9.00
2022-12-28T14:10:33.066Z,9.10
2022-12-28T14:13:01.225Z,9.10
2022-12-28T14:15:28.258Z,9.10
2022-12-28T14:17:55.509Z,9.10
2022-12-28T14:20:22.369Z,9.10
2022-12-28T14:22:49.093Z,9.20
2022-12-28T14:25:18.442Z,9.30
2022-12-28T14:28:02.265Z,9.30
2022-12-28T14:30:32.459Z,9.30
2022-12-28T14:33:11.545Z,9.10
2022-12-28T14:35:49.175Z,9.20
2022-12-28T14:38:21.530Z,9.10
2022-12-28T14:40:56.904Z,9.10
2022-12-28T14:43:27.032Z,9.00
2022-12-28T14:48:42.654Z,9.10
2022-12-28T14:51:15.529Z,9.10
2022-12-28T14:53:45.172Z,9.10
2022-12-28T14:56:17.887Z,9.10
2022-12-28T14:58:57.825Z,9.10
2022-12-28T15:01:25.198Z,9.10
2022-12-28T15:03:53.337Z,9.20
2022-12-28T15:06:21.831Z,9.50
2022-12-28T15:08:53.279Z,9.40
2022-12-28T15:11:22.195Z,9.30
2022-12-28T15:13:49.583Z,9.30
2022-12-28T15:16:18.444Z,9.30
2022-12-28T15:18:45.267Z,9.20
2022-12-28T15:21:13.841Z,9.20
2022-12-28T15:23:40.733Z,9.30
2022-12-28T15:26:09.398Z,9.30
2022-12-28T15:28:36.602Z,9.20
2022-12-28T15:31:12.732Z,9.20
2022-12-28T15:33:39.739Z,9.20
2022-12-28T15:36:16.702Z,9.20
2022-12-28T15:38:45.321Z,9.20
2022-12-28T15:41:30.776Z,9.20
2022-12-28T15:43:57.481Z,9.30
2022-12-28T15:46:24.214Z,9.30
2022-12-28T15:48:51.704Z,9.30
2022-12-28T15:51:18.311Z,9.30
2022-12-28T15:53:44.918Z,9.40
2022-12-28T15:56:27.230Z,9.40
2022-12-28T15:58:55.741Z,9.50
2022-12-28T16:01:24.082Z,9.50
2022-12-28T16:03:52.319Z,9.50
2022-12-28T16:06:20.136Z,9.50
2022-12-28T16:08:46.817Z,9.60
2022-12-28T16:11:15.901Z,9.50
2022-12-28T16:13:43.207Z,9.60
2022-12-28T16:16:12.738Z,9.60
2022-12-28T16:18:39.748Z,9.60
2022-12-28T16:21:09.155Z,9.50
2022-12-28T16:23:40.807Z,9.50
2022-12-28T16:26:09.066Z,9.50
2022-12-28T16:28:36.000Z,9.50
2022-12-28T16:31:03.373Z,9.60
2022-12-28T16:33:30.118Z,9.50
2022-12-28T16:35:59.742Z,9.60
2022-12-28T16:38:28.682Z,9.60
2022-12-28T16:40:56.773Z,9.60
2022-12-28T16:43:23.900Z,9.60
2022-12-28T16:45:51.188Z,9.60
2022-12-28T16:48:17.878Z,9.60
2022-12-28T16:50:44.624Z,9.60
2022-12-28T16:53:11.298Z,9.60
2022-12-28T16:55:40.884Z,9.60
2022-12-28T16:58:07.753Z,9.60
2022-12-28T17:00:34.681Z,9.60
2022-12-28T17:03:01.633Z,9.60
2022-12-28T17:05:31.243Z,9.60
2022-12-28T17:07:57.974Z,9.60
2022-12-28T17:10:24.618Z,9.60
2022-12-28T17:12:51.326Z,9.70
2022-12-28T17:15:18.210Z,9.60
2022-12-28T17:17:44.847Z,9.60
2022-12-28T17:20:11.765Z,9.60
2022-12-28T17:22:38.761Z,9.60
2022-12-28T17:25:06.142Z,9.50
2022-12-28T17:27:33.142Z,9.50
2022-12-28T17:30:00.009Z,9.50
2022-12-28T17:32:26.865Z,9.50
2022-12-28T17:34:53.611Z,9.50
2022-12-28T17:37:20.361Z,9.40
2022-12-28T17:39:47.029Z,9.30
2022-12-28T17:42:13.706Z,9.30
2022-12-28T17:44:40.333Z,9.30
2022-12-28T17:47:08.196Z,9.30
2022-12-28T17:49:34.839Z,9.20
2022-12-28T17:52:01.450Z,9.20
2022-12-28T17:54:28.050Z,9.20
2022-12-28T17:56:54.663Z,9.30
2022-12-28T17:59:21.244Z,9.20
2022-12-28T18:01:48.041Z,9.30
2022-12-28T18:04:15.296Z,9.20
2022-12-28T18:06:41.897Z,9.20
2022-12-28T18:09:08.701Z,9.20
2022-12-28T18:11:35.681Z,9.10
2022-12-28T18:14:02.333Z,9.10
2022-12-28T18:16:29.026Z,9.10
2022-12-28T18:18:55.880Z,9.10
2022-12-28T18:21:25.482Z,9.20
2022-12-28T18:23:52.555Z,9.10
2022-12-28T18:26:26.055Z,9.10
2022-12-28T18:28:54.018Z,9.10
2022-12-28T18:31:20.964Z,9.00
2022-12-28T18:33:47.774Z,9.10
2022-12-28T18:36:17.820Z,9.10
2022-12-28T18:38:47.151Z,9.00
2022-12-28T18:41:17.018Z,9.00
2022-12-28T18:43:43.658Z,9.00
2022-12-28T18:46:11.196Z,9.00
2022-12-28T18:48:39.361Z,9.00
2022-12-28T18:51:10.518Z,9.10
2022-12-28T18:53:37.681Z,9.00
2022-12-28T18:56:10.193Z,9.00
2022-12-28T18:58:38.750Z,8.90
2022-12-28T19:01:07.750Z,8.90
2022-12-28T19:03:35.216Z,8.90
2022-12-28T19:06:04.771Z,8.90
2022-12-28T19:08:33.424Z,8.80
2022-12-28T19:11:01.117Z,8.80
2022-12-28T19:13:32.008Z,8.80
2022-12-28T19:15:58.626Z,8.70
2022-12-28T19:18:25.337Z,8.80
2022-12-28T19:21:18.491Z,8.80
2022-12-28T19:23:50.858Z,8.80
2022-12-28T19:26:17.819Z,8.80
2022-12-28T19:28:44.509Z,8.70
2022-12-28T19:31:11.172Z,8.70
2022-12-28T19:33:37.911Z,8.70
2022-12-28T19:36:04.827Z,8.70
2022-12-28T19:38:31.436Z,8.70
2022-12-28T19:41:04.060Z,8.70
2022-12-28T19:43:30.710Z,8.70
2022-12-28T19:46:31.341Z,8.60
2022-12-28T19:49:02.907Z,8.60
2022-12-28T19:51:32.130Z,8.70
2022-12-28T19:54:00.086Z,8.70
2022-12-28T19:56:27.050Z,8.60
2022-12-28T19:58:57.810Z,8.70
2022-12-28T20:01:27.063Z,8.70
2022-12-28T20:03:54.669Z,8.70
2022-12-28T20:06:23.717Z,8.70
2022-12-28T20:08:52.539Z,8.70
2022-12-28T20:11:20.569Z,8.70
2022-12-28T20:13:55.085Z,8.70
2022-12-28T20:16:22.379Z,8.70
2022-12-28T20:18:50.690Z,8.80
2022-12-28T20:21:20.013Z,8.80
2022-12-28T20:23:48.077Z,8.80
2022-12-28T20:26:15.031Z,8.80
2022-12-28T20:28:41.649Z,8.80
2022-12-28T20:31:11.997Z,8.80
2022-12-28T20:33:38.790Z,8.80
2022-12-28T20:36:11.165Z,8.80
2022-12-28T20:38:38.004Z,8.90
2022-12-28T20:41:42.581Z,8.90
2022-12-28T20:44:31.125Z,8.90
2022-12-28T20:46:59.034Z,9.00
2022-12-28T20:49:26.616Z,9.00
2022-12-28T20:51:54.122Z,9.00
2022-12-28T20:54:21.526Z,9.10
2022-12-28T20:56:54.414Z,9.10
2022-12-28T20:59:22.595Z,9.20
2022-12-28T21:01:49.374Z,9.20
2022-12-28T21:04:16.233Z,9.30
2022-12-28T21:06:42.855Z,9.30
2022-12-28T21:09:09.479Z,9.30
2022-12-28T21:11:36.100Z,9.40
2022-12-28T21:14:02.743Z,9.30
2022-12-28T21:16:29.371Z,9.40
2022-12-28T21:18:56.156Z,9.40
2022-12-28T21:21:22.911Z,9.40
2022-12-28T21:23:49.551Z,9.50
2022-12-28T21:26:17.990Z,9.40
2022-12-28T21:28:44.999Z,9.50
2022-12-28T21:31:12.316Z,9.50
2022-12-28T21:33:39.730Z,9.50
2022-12-28T21:36:16.330Z,9.50
2022-12-28T21:38:44.865Z,9.60
2022-12-28T21:41:38.689Z,10.10
2022-12-28T21:44:11.397Z,10.00
2022-12-28T21:46:38.150Z,9.90
2022-12-28T21:49:05.569Z,9.90
2022-12-28T21:51:35.109Z,9.80
2022-12-28T21:54:14.279Z,9.80
2022-12-28T21:56:42.529Z,9.80
2022-12-28T21:59:10.837Z,9.80
2022-12-28T22:01:57.607Z,9.70
2022-12-28T22:04:43.287Z,9.80
2022-12-28T22:07:13.043Z,9.80
2022-12-28T22:09:58.938Z,9.90
2022-12-28T22:12:35.393Z,9.80
2022-12-28T22:15:22.223Z,9.80
2022-12-28T22:17:48.950Z,9.90
2022-12-28T22:20:16.375Z,9.90
2022-12-28T22:22:44.111Z,9.90
2022-12-28T22:25:12.237Z,9.90
2022-12-28T22:27:39.453Z,9.90
2022-12-28T22:30:06.618Z,10.00
2022-12-28T22:32:33.271Z,10.10
2022-12-28T22:34:59.883Z,10.00
2022-12-28T22:37:26.521Z,10.00
2022-12-28T22:39:53.338Z,10.10
2022-12-28T22:42:20.237Z,10.10
2022-12-28T22:44:46.893Z,10.10
2022-12-28T22:47:13.540Z,10.10
2022-12-28T22:49:40.166Z,10.10
2022-12-28T22:52:07.255Z,10.10
2022-12-28T22:54:33.886Z,10.00
2022-12-28T22:57:00.558Z,10.00
2022-12-28T22:59:27.229Z,9.90
2022-12-28T23:01:54.185Z,9.90
2022-12-28T23:04:21.177Z,9.90
2022-12-28T23:06:47.826Z,9.80
2022-12-28T23:09:14.481Z,9.90
2022-12-28T23:11:41.245Z,9.90
2022-12-28T23:14:30.920Z,9.90
2022-12-28T23:16:58.478Z,9.90
2022-12-28T23:19:44.158Z,9.90
2022-12-28T23:22:32.239Z,9.90
2022-12-28T23:25:17.768Z,10.10
2022-12-28T23:27:45.724Z,10.00
2022-12-28T23:30:18.820Z,10.10
2022-12-28T23:32:50.335Z,10.10
2022-12-28T23:35:18.476Z,10.10
2022-12-28T23:37:45.272Z,10.20
2022-12-28T23:40:14.443Z,10.20
2022-12-28T23:42:42.171Z,10.20
2022-12-28T23:45:11.416Z,10.20
2022-12-28T23:47:38.997Z,10.20
2022-12-28T23:50:06.072Z,10.30
2022-12-28T23:52:32.937Z,10.30
2022-12-28T23:54:59.576Z,10.30
2022-12-28T23:57:26.206Z,10.30
2022-12-28T23:59:52.962Z,10.30
